Time;durP1;ratioP1;P1;durP2;ratioP2;P2;SDS_P1;SDS_P2;PMS_P1;PMS_P2;Temp;Humidity;BMP_temperature;BMP_pressure;BME280_temperature;BME280_humidity;BME280_pressure;Samples;Min_cycle;Max_cycle;Signal;HPM_P1;HPM_P2
2022/07/16 00:01:50;;;;;;;5.20;2.20;;;;;;;;;;5022618;28;20052;-84
2022/07/16 00:04:15;;;;;;;3.17;2.25;;;;;;;;;;5008460;28;20034;-80
2022/07/16 00:06:41;;;;;;;6.65;2.58;;;;;;;;;;5004979;28;20041;-86
2022/07/16 00:09:06;;;;;;;4.18;2.38;;;;;;;;;;5027102;28;20475;-87
2022/07/16 00:11:31;;;;;;;6.45;2.47;;;;;;;;;;5008520;28;20079;-81
2022/07/16 00:13:57;;;;;;;3.53;2.30;;;;;;;;;;5026524;28;20048;-82
2022/07/16 00:16:22;;;;;;;4.15;2.67;;;;;;;;;;5024710;28;20603;-84
2022/07/16 00:21:31;;;;;;;3.28;2.10;;;;;;;;;;5026318;28;20040;-80
2022/07/16 00:23:56;;;;;;;3.38;2.08;;;;;;;;;;5024821;28;20017;-80
2022/07/16 00:26:22;;;;;;;6.38;2.50;;;;;;;;;;5007437;28;20493;-81
2022/07/16 00:28:47;;;;;;;3.42;2.00;;;;;;;;;;5006469;28;20022;-85
2022/07/16 00:31:12;;;;;;;4.30;2.40;;;;;;;;;;5007631;28;20029;-81
2022/07/16 00:33:38;;;;;;;3.10;2.25;;;;;;;;;;5004515;28;20112;-85
2022/07/16 00:36:03;;;;;;;3.05;2.22;;;;;;;;;;5025043;28;20496;-80
2022/07/16 00:38:29;;;;;;;4.40;2.80;;;;;;;;;;5005168;28;20057;-80
2022/07/16 00:40:54;;;;;;;5.93;2.78;;;;;;;;;;5005647;28;20030;-86
2022/07/16 00:43:19;;;;;;;2.58;1.90;;;;;;;;;;5020658;28;20025;-82
2022/07/16 00:45:44;;;;;;;4.55;2.22;;;;;;;;;;5025372;28;20060;-84
2022/07/16 00:48:11;;;;;;;4.75;2.90;;;;;;;;;;5024218;28;20017;-85
2022/07/16 00:50:37;;;;;;;5.10;2.60;;;;;;;;;;5021601;28;20117;-80
2022/07/16 00:53:03;;;;;;;5.45;2.65;;;;;;;;;;5023954;28;20104;-85
2022/07/16 00:55:31;;;;;;;8.13;3.58;;;;;;;;;;5023242;28;20025;-81
2022/07/16 00:57:57;;;;;;;3.65;2.67;;;;;;;;;;5003606;28;20025;-84
2022/07/16 01:00:23;;;;;;;4.15;3.03;;;;;;;;;;5007329;28;20036;-85
2022/07/16 01:02:49;;;;;;;4.18;2.25;;;;;;;;;;5024326;28;20033;-80
2022/07/16 01:05:14;;;;;;;6.28;2.90;;;;;;;;;;5007766;28;20121;-82
2022/07/16 01:07:39;;;;;;;6.20;3.75;;;;;;;;;;5022508;28;20054;-80
2022/07/16 01:10:05;;;;;;;4.10;2.50;;;;;;;;;;5006730;28;20033;-85
2022/07/16 01:12:30;;;;;;;4.20;2.83;;;;;;;;;;5022020;28;20116;-81
2022/07/16 01:14:56;;;;;;;5.00;4.10;;;;;;;;;;5007024;28;20030;-85
2022/07/16 01:17:21;;;;;;;4.28;2.67;;;;;;;;;;5026693;28;20092;-80
2022/07/16 01:19:47;;;;;;;6.70;2.50;;;;;;;;;;5008109;28;20112;-80
2022/07/16 01:22:19;;;;;;;5.18;3.08;;;;;;;;;;5009864;28;20034;-83
2022/07/16 01:24:44;;;;;;;3.97;3.05;;;;;;;;;;5022385;28;20112;-85
2022/07/16 01:27:12;;;;;;;6.32;2.75;;;;;;;;;;5005923;28;20120;-81
2022/07/16 01:29:40;;;;;;;4.63;2.55;;;;;;;;;;5004646;28;20018;-80
2022/07/16 01:32:06;;;;;;;6.97;2.67;;;;;;;;;;5007120;28;20107;-87
2022/07/16 01:34:31;;;;;;;6.05;2.75;;;;;;;;;;5024956;28;20022;-81
2022/07/16 01:36:58;;;;;;;5.55;3.00;;;;;;;;;;5028016;28;20097;-84
2022/07/16 01:39:24;;;;;;;4.25;3.60;;;;;;;;;;5024803;28;20043;-86
2022/07/16 01:41:53;;;;;;;4.68;2.72;;;;;;;;;;5027828;28;20105;-80
2022/07/16 01:44:18;;;;;;;6.88;2.80;;;;;;;;;;5011578;28;20021;-86
2022/07/16 01:46:44;;;;;;;3.83;3.15;;;;;;;;;;5026031;28;20458;-81
2022/07/16 01:49:12;;;;;;;4.63;2.97;;;;;;;;;;5011543;28;20041;-81
2022/07/16 01:51:40;;;;;;;6.20;3.30;;;;;;;;;;5009842;28;20025;-80
2022/07/16 01:54:06;;;;;;;4.97;2.63;;;;;;;;;;5027603;28;20025;-82
2022/07/16 01:56:31;;;;;;;4.65;2.72;;;;;;;;;;5025108;28;20079;-85
2022/07/16 01:58:57;;;;;;;6.07;3.03;;;;;;;;;;5025178;28;20455;-83
2022/07/16 02:01:22;;;;;;;12.55;4.57;;;;;;;;;;5024210;28;20598;-80
2022/07/16 02:03:47;;;;;;;14.20;4.10;;;;;;;;;;5025444;28;20025;-81
2022/07/16 02:06:15;;;;;;;6.25;3.40;;;;;;;;;;5026018;28;20112;-82
2022/07/16 02:08:44;;;;;;;6.68;3.53;;;;;;;;;;5008494;28;20566;-82
2022/07/16 02:11:12;;;;;;;4.90;2.88;;;;;;;;;;5026955;28;20049;-83
2022/07/16 02:13:37;;;;;;;5.38;3.45;;;;;;;;;;5024039;28;20470;-84
2022/07/16 02:16:02;;;;;;;6.10;3.55;;;;;;;;;;5023384;28;20040;-84
2022/07/16 02:18:28;;;;;;;7.43;4.85;;;;;;;;;;5009537;28;20500;-83
2022/07/16 02:20:53;;;;;;;4.70;3.30;;;;;;;;;;5027292;28;20511;-84
2022/07/16 02:23:19;;;;;;;4.57;3.28;;;;;;;;;;5024762;28;20489;-83
2022/07/16 02:25:44;;;;;;;8.65;3.80;;;;;;;;;;5026519;28;20029;-84
2022/07/16 02:28:09;;;;;;;4.85;3.63;;;;;;;;;;5019905;28;21184;-83
2022/07/16 02:30:36;;;;;;;6.30;3.70;;;;;;;;;;5020089;28;20033;-84
2022/07/16 02:33:01;;;;;;;5.15;3.05;;;;;;;;;;5027740;28;20040;-83
2022/07/16 02:35:26;;;;;;;6.38;3.55;;;;;;;;;;5027023;28;20018;-83
2022/07/16 02:37:52;;;;;;;6.18;3.33;;;;;;;;;;5024771;28;20033;-83
2022/07/16 02:40:17;;;;;;;6.38;3.05;;;;;;;;;;5005436;28;20021;-84
2022/07/16 02:42:42;;;;;;;5.38;3.05;;;;;;;;;;5026112;28;20041;-84
2022/07/16 02:45:08;;;;;;;6.97;2.70;;;;;;;;;;5007589;28;20057;-84
2022/07/16 02:47:34;;;;;;;4.55;2.33;;;;;;;;;;5001863;28;20392;-85
2022/07/16 02:49:59;;;;;;;5.10;2.45;;;;;;;;;;5023840;28;20042;-85
2022/07/16 02:52:25;;;;;;;5.43;2.05;;;;;;;;;;5001317;28;20038;-84
2022/07/16 02:54:50;;;;;;;9.40;3.17;;;;;;;;;;5023142;28;20424;-84
2022/07/16 02:57:15;;;;;;;4.95;2.40;;;;;;;;;;5020183;28;20026;-86
2022/07/16 02:59:40;;;;;;;5.45;2.40;;;;;;;;;;5005565;28;20468;-86
2022/07/16 03:02:06;;;;;;;6.00;2.13;;;;;;;;;;5022079;28;20465;-86
2022/07/16 03:04:31;;;;;;;8.45;2.65;;;;;;;;;;5024725;28;20041;-85
2022/07/16 03:06:57;;;;;;;8.20;3.53;;;;;;;;;;5025051;28;20081;-85
2022/07/16 03:09:22;;;;;;;4.65;2.25;;;;;;;;;;5026816;28;20040;-85
2022/07/16 03:11:47;;;;;;;6.78;2.03;;;;;;;;;;5018442;28;20071;-86
2022/07/16 03:14:12;;;;;;;4.90;2.22;;;;;;;;;;5026465;28;20052;-85
2022/07/16 03:16:37;;;;;;;4.63;2.00;;;;;;;;;;5006536;28;20048;-85
2022/07/16 03:19:03;;;;;;;5.55;3.20;;;;;;;;;;5007941;28;20025;-85
2022/07/16 03:21:28;;;;;;;2.65;1.83;;;;;;;;;;5011433;28;20029;-83
2022/07/16 03:23:53;;;;;;;7.80;2.65;;;;;;;;;;5005493;28;20029;-84
2022/07/16 03:26:18;;;;;;;5.50;1.92;;;;;;;;;;5007289;28;20385;-87
2022/07/16 03:28:44;;;;;;;3.15;2.15;;;;;;;;;;5023846;28;20017;-87
2022/07/16 03:31:09;;;;;;;7.07;2.03;;;;;;;;;;5006656;28;20186;-86
2022/07/16 03:33:37;;;;;;;6.00;2.03;;;;;;;;;;5004391;28;20519;-84
2022/07/16 03:36:02;;;;;;;8.45;3.03;;;;;;;;;;5009695;28;20489;-87
2022/07/16 03:41:12;;;;;;;5.20;2.53;;;;;;;;;;5023065;28;20046;-88
2022/07/16 03:43:37;;;;;;;4.78;1.83;;;;;;;;;;5025418;28;20034;-86
2022/07/16 03:46:02;;;;;;;8.68;2.20;;;;;;;;;;5022878;28;21211;-85
2022/07/16 03:48:27;;;;;;;3.45;2.13;;;;;;;;;;5007718;28;20021;-85
2022/07/16 03:50:53;;;;;;;4.25;2.38;;;;;;;;;;5008668;28;20582;-87
2022/07/16 03:53:18;;;;;;;6.68;2.22;;;;;;;;;;5019889;28;20076;-85
2022/07/16 03:55:43;;;;;;;3.85;1.90;;;;;;;;;;5005974;28;20739;-87
2022/07/16 03:58:08;;;;;;;6.55;2.75;;;;;;;;;;5023743;28;20428;-85
2022/07/16 04:00:37;;;;;;;4.10;1.73;;;;;;;;;;5021787;28;20028;-85
2022/07/16 04:03:05;;;;;;;4.00;1.77;;;;;;;;;;5005938;28;20030;-85
2022/07/16 04:05:30;;;;;;;5.07;2.08;;;;;;;;;;5021337;28;20033;-87
2022/07/16 04:07:55;;;;;;;5.38;2.20;;;;;;;;;;5007327;28;20053;-87
2022/07/16 04:10:21;;;;;;;5.88;1.73;;;;;;;;;;5007523;28;20025;-84
2022/07/16 04:12:46;;;;;;;6.68;2.08;;;;;;;;;;5006430;28;20033;-85
2022/07/16 04:15:11;;;;;;;4.75;2.47;;;;;;;;;;5007917;28;20427;-85
2022/07/16 04:17:36;;;;;;;8.43;2.03;;;;;;;;;;5023909;28;20539;-85
2022/07/16 04:20:05;;;;;;;3.60;2.60;;;;;;;;;;5006592;28;20105;-86
2022/07/16 04:22:33;;;;;;;4.28;2.42;;;;;;;;;;5024092;28;20018;-87
2022/07/16 04:24:59;;;;;;;4.47;2.50;;;;;;;;;;5006435;28;20098;-85
2022/07/16 04:27:24;;;;;;;3.78;1.73;;;;;;;;;;5019540;28;20116;-84
2022/07/16 04:29:49;;;;;;;6.05;2.42;;;;;;;;;;5006718;28;20029;-88
2022/07/16 04:32:14;;;;;;;3.87;2.13;;;;;;;;;;5011064;28;20027;-86
2022/07/16 04:34:39;;;;;;;4.28;1.98;;;;;;;;;;5009512;28;20329;-85
2022/07/16 04:37:05;;;;;;;3.05;1.95;;;;;;;;;;5007501;28;20119;-86
2022/07/16 04:39:30;;;;;;;7.05;2.72;;;;;;;;;;5024734;28;20092;-88
2022/07/16 04:41:55;;;;;;;4.18;1.92;;;;;;;;;;5005067;28;20355;-86
2022/07/16 04:44:21;;;;;;;4.65;1.70;;;;;;;;;;5009247;28;20414;-85
2022/07/16 04:46:49;;;;;;;2.50;1.70;;;;;;;;;;5023270;28;20021;-86
2022/07/16 04:49:14;;;;;;;5.00;1.95;;;;;;;;;;5025477;28;20356;-87
2022/07/16 04:51:40;;;;;;;6.55;2.40;;;;;;;;;;5022774;28;20048;-85
2022/07/16 04:54:08;;;;;;;2.55;1.92;;;;;;;;;;5015387;28;20604;-85
2022/07/16 04:56:33;;;;;;;6.32;2.20;;;;;;;;;;5017857;28;20079;-88
2022/07/16 04:58:58;;;;;;;6.15;3.63;;;;;;;;;;5021593;28;20030;-85
2022/07/16 05:01:23;;;;;;;6.35;2.50;;;;;;;;;;5002056;28;20034;-87
2022/07/16 05:03:49;;;;;;;4.97;2.17;;;;;;;;;;5019990;28;20470;-85
2022/07/16 05:06:14;;;;;;;3.45;2.17;;;;;;;;;;5008156;28;20128;-86
2022/07/16 05:08:39;;;;;;;4.30;2.17;;;;;;;;;;5011309;28;20056;-85
2022/07/16 05:11:04;;;;;;;4.95;2.35;;;;;;;;;;5010126;28;20282;-86
2022/07/16 05:13:30;;;;;;;5.43;2.10;;;;;;;;;;5027217;28;20029;-85
2022/07/16 05:15:55;;;;;;;2.90;2.22;;;;;;;;;;5028589;28;20039;-86
2022/07/16 05:18:20;;;;;;;3.33;1.95;;;;;;;;;;5025822;28;20456;-85
2022/07/16 05:20:48;;;;;;;5.43;2.20;;;;;;;;;;5024454;28;20033;-87
2022/07/16 05:23:13;;;;;;;6.65;1.80;;;;;;;;;;5011624;28;20021;-84
2022/07/16 05:25:39;;;;;;;3.38;1.80;;;;;;;;;;5024884;28;20392;-86
2022/07/16 05:28:04;;;;;;;6.97;2.17;;;;;;;;;;5022016;28;20493;-84
2022/07/16 05:30:29;;;;;;;5.25;1.88;;;;;;;;;;5011162;28;20047;-84
2022/07/16 05:32:55;;;;;;;9.15;2.38;;;;;;;;;;5024045;28;20036;-86
2022/07/16 05:35:20;;;;;;;7.82;2.03;;;;;;;;;;5020782;28;20026;-85
2022/07/16 05:37:45;;;;;;;4.97;1.75;;;;;;;;;;5008230;28;20111;-85
2022/07/16 05:40:11;;;;;;;6.68;1.80;;;;;;;;;;5013687;28;20032;-85
2022/07/16 05:42:37;;;;;;;6.55;1.77;;;;;;;;;;5028295;28;20040;-86
2022/07/16 05:45:04;;;;;;;5.63;1.58;;;;;;;;;;5027347;28;20089;-84
2022/07/16 05:47:31;;;;;;;2.95;1.80;;;;;;;;;;5028131;28;20040;-88
2022/07/16 05:49:56;;;;;;;8.50;1.73;;;;;;;;;;5029005;28;20028;-87
2022/07/16 05:52:22;;;;;;;5.60;1.58;;;;;;;;;;5013554;28;20038;-84
2022/07/16 05:54:47;;;;;;;5.38;1.65;;;;;;;;;;5013594;28;20035;-84
2022/07/16 05:57:12;;;;;;;2.50;1.65;;;;;;;;;;5009988;28;20032;-90
2022/07/16 05:59:37;;;;;;;4.20;2.13;;;;;;;;;;5027212;28;20045;-83
2022/07/16 06:02:03;;;;;;;3.55;1.92;;;;;;;;;;5024428;28;20303;-87
2022/07/16 06:04:28;;;;;;;5.57;1.88;;;;;;;;;;5000435;28;20040;-86
2022/07/16 06:06:55;;;;;;;5.22;1.33;;;;;;;;;;5003773;28;20072;-86
2022/07/16 06:09:21;;;;;;;3.78;1.75;;;;;;;;;;5005697;28;20028;-87
2022/07/16 06:11:46;;;;;;;6.53;1.90;;;;;;;;;;5021750;28;20120;-86
2022/07/16 06:14:13;;;;;;;6.60;2.38;;;;;;;;;;5018201;28;20053;-88
2022/07/16 06:16:40;;;;;;;6.30;1.42;;;;;;;;;;5033986;28;20112;-86
2022/07/16 06:19:05;;;;;;;6.13;1.70;;;;;;;;;;5018272;28;20113;-88
2022/07/16 06:21:30;;;;;;;8.02;2.35;;;;;;;;;;5033018;28;20489;-86
2022/07/16 06:23:55;;;;;;;8.60;2.00;;;;;;;;;;5026309;28;20083;-87
2022/07/16 06:26:24;;;;;;;4.72;1.58;;;;;;;;;;5014534;28;20129;-86
2022/07/16 06:28:49;;;;;;;5.60;1.98;;;;;;;;;;5030840;28;20029;-87
2022/07/16 06:31:14;;;;;;;5.20;1.65;;;;;;;;;;5031389;28;20389;-87
2022/07/16 06:33:39;;;;;;;7.78;1.75;;;;;;;;;;5016878;28;20481;-86
2022/07/16 06:36:05;;;;;;;6.15;1.90;;;;;;;;;;5016248;28;20025;-86
2022/07/16 06:38:31;;;;;;;5.00;1.58;;;;;;;;;;5016075;28;20389;-86
2022/07/16 06:40:56;;;;;;;6.15;1.85;;;;;;;;;;4999738;28;20382;-85
2022/07/16 06:43:22;;;;;;;5.78;1.15;;;;;;;;;;5033987;28;20029;-87
2022/07/16 06:45:47;;;;;;;3.72;1.20;;;;;;;;;;5016350;28;20022;-87
2022/07/16 06:48:12;;;;;;;6.55;1.40;;;;;;;;;;5015950;28;20363;-86
2022/07/16 06:50:37;;;;;;;3.88;1.20;;;;;;;;;;5017667;28;20124;-85
2022/07/16 06:53:03;;;;;;;5.25;1.85;;;;;;;;;;5018730;28;20152;-86
2022/07/16 06:55:28;;;;;;;5.15;1.95;;;;;;;;;;5010865;28;20037;-86
2022/07/16 06:57:53;;;;;;;5.32;1.55;;;;;;;;;;5029722;28;20467;-85
2022/07/16 07:00:19;;;;;;;3.43;1.33;;;;;;;;;;5016584;28;20033;-85
2022/07/16 07:02:44;;;;;;;8.65;2.08;;;;;;;;;;5030633;28;20286;-85
2022/07/16 07:05:11;;;;;;;3.85;1.52;;;;;;;;;;5019134;28;20025;-85
2022/07/16 07:07:36;;;;;;;2.75;1.30;;;;;;;;;;5033767;28;20076;-85
2022/07/16 07:10:01;;;;;;;7.53;1.30;;;;;;;;;;5018899;28;20061;-86
2022/07/16 07:12:27;;;;;;;5.03;1.33;;;;;;;;;;5015462;28;20034;-85
2022/07/16 07:14:52;;;;;;;4.28;1.30;;;;;;;;;;5034534;28;20248;-85
2022/07/16 07:17:17;;;;;;;6.65;1.60;;;;;;;;;;5018144;28;20026;-86
2022/07/16 07:19:43;;;;;;;5.30;1.75;;;;;;;;;;5014527;28;20032;-85
2022/07/16 07:22:08;;;;;;;3.95;1.50;;;;;;;;;;5035249;28;20017;-85
2022/07/16 07:24:33;;;;;;;3.42;1.33;;;;;;;;;;5017568;28;20033;-86
2022/07/16 07:26:58;;;;;;;5.35;1.50;;;;;;;;;;5033274;28;20033;-86
2022/07/16 07:29:24;;;;;;;2.97;1.17;;;;;;;;;;5031253;28;20036;-86
2022/07/16 07:31:49;;;;;;;6.03;1.27;;;;;;;;;;5013072;28;20030;-86
2022/07/16 07:34:17;;;;;;;5.82;1.45;;;;;;;;;;5033147;28;20034;-85
2022/07/16 07:36:42;;;;;;;4.53;1.52;;;;;;;;;;5016649;28;20037;-85
2022/07/16 07:39:07;;;;;;;5.88;2.08;;;;;;;;;;5018820;28;20017;-86
2022/07/16 07:41:33;;;;;;;3.57;1.50;;;;;;;;;;5018913;28;20029;-85
2022/07/16 07:43:58;;;;;;;5.03;1.27;;;;;;;;;;5007859;28;20318;-85
2022/07/16 07:46:24;;;;;;;9.60;1.73;;;;;;;;;;5012646;28;20038;-85
2022/07/16 07:48:52;;;;;;;9.10;1.42;;;;;;;;;;4997568;28;20500;-84
2022/07/16 07:51:18;;;;;;;5.38;1.45;;;;;;;;;;5016025;28;20087;-85
2022/07/16 07:53:43;;;;;;;2.88;1.20;;;;;;;;;;5013660;28;20029;-85
2022/07/16 07:56:10;;;;;;;3.90;1.20;;;;;;;;;;5010239;28;20029;-85
2022/07/16 07:58:36;;;;;;;8.52;1.40;;;;;;;;;;5013942;28;20021;-85
2022/07/16 08:01:02;;;;;;;2.60;1.27;;;;;;;;;;5012428;28;20013;-85
2022/07/16 08:03:27;;;;;;;3.08;1.48;;;;;;;;;;5041280;28;20025;-85
2022/07/16 08:05:52;;;;;;;3.90;1.15;;;;;;;;;;5015099;28;20120;-85
2022/07/16 08:08:21;;;;;;;2.83;1.10;;;;;;;;;;5036367;28;20028;-86
2022/07/16 08:10:46;;;;;;;3.75;1.20;;;;;;;;;;5016889;28;20069;-86
2022/07/16 08:13:15;;;;;;;11.38;1.98;;;;;;;;;;5020902;28;20056;-85
2022/07/16 08:15:40;;;;;;;4.95;2.10;;;;;;;;;;5015814;28;20034;-84
2022/07/16 08:18:05;;;;;;;9.77;1.70;;;;;;;;;;5014851;28;20461;-86
2022/07/16 08:20:30;;;;;;;4.20;1.88;;;;;;;;;;5031989;28;20052;-86
2022/07/16 08:22:56;;;;;;;3.08;1.33;;;;;;;;;;5032602;28;20029;-86
2022/07/16 08:28:05;;;;;;;5.03;1.40;;;;;;;;;;5032909;28;20047;-86
2022/07/16 08:30:30;;;;;;;3.28;1.25;;;;;;;;;;5038043;28;20112;-85
2022/07/16 08:32:55;;;;;;;5.43;1.20;;;;;;;;;;5015805;28;20033;-83
2022/07/16 08:35:20;;;;;;;7.75;1.40;;;;;;;;;;5016736;28;20037;-86
2022/07/16 08:37:46;;;;;;;7.38;1.60;;;;;;;;;;5015372;28;20026;-86
2022/07/16 08:40:19;;;;;;;9.30;1.60;;;;;;;;;;5021362;28;20021;-84
2022/07/16 08:42:45;;;;;;;3.47;1.13;;;;;;;;;;5007452;28;20108;-84
2022/07/16 08:45:11;;;;;;;6.78;1.52;;;;;;;;;;5014617;28;20111;-84
2022/07/16 08:47:36;;;;;;;5.30;1.60;;;;;;;;;;5012879;28;20029;-84
2022/07/16 08:50:04;;;;;;;4.95;1.08;;;;;;;;;;5030257;28;20495;-84
2022/07/16 08:52:29;;;;;;;3.53;1.45;;;;;;;;;;5031421;28;20060;-84
2022/07/16 08:54:55;;;;;;;9.90;1.83;;;;;;;;;;5009983;28;20095;-83
2022/07/16 08:57:22;;;;;;;6.80;1.27;;;;;;;;;;5010734;28;20026;-83
2022/07/16 08:59:51;;;;;;;3.63;1.30;;;;;;;;;;5014590;28;20358;-86
2022/07/16 09:02:16;;;;;;;4.85;1.75;;;;;;;;;;5010670;28;20057;-84
2022/07/16 09:04:42;;;;;;;6.18;1.40;;;;;;;;;;5014592;28;20044;-84
2022/07/16 09:07:10;;;;;;;6.25;1.30;;;;;;;;;;5013969;28;20049;-85
2022/07/16 09:09:35;;;;;;;4.40;1.20;;;;;;;;;;5033028;28;20133;-85
2022/07/16 09:12:01;;;;;;;3.95;1.38;;;;;;;;;;5012660;28;20045;-84
2022/07/16 09:14:26;;;;;;;4.22;1.23;;;;;;;;;;5033625;28;20036;-84
2022/07/16 09:16:54;;;;;;;3.80;1.40;;;;;;;;;;5010611;28;20513;-84
2022/07/16 09:19:21;;;;;;;4.60;1.08;;;;;;;;;;5026555;28;20275;-85
2022/07/16 09:21:58;;;;;;;2.15;1.30;;;;;;;;;;5014678;28;20489;-84
2022/07/16 09:24:30;;;;;;;6.57;1.35;;;;;;;;;;5022121;28;20865;-85
2022/07/16 09:26:59;;;;;;;9.00;2.30;;;;;;;;;;5022728;28;20034;-84
2022/07/16 09:29:24;;;;;;;3.50;1.10;;;;;;;;;;5006563;28;20530;-84
2022/07/16 09:31:53;;;;;;;5.97;1.35;;;;;;;;;;5038651;28;20091;-84
2022/07/16 09:34:19;;;;;;;6.68;1.10;;;;;;;;;;5031016;28;20025;-84
2022/07/16 09:36:58;;;;;;;8.57;1.40;;;;;;;;;;5034367;28;20387;-84
2022/07/16 09:39:27;;;;;;;4.50;1.15;;;;;;;;;;5024944;28;20022;-84
2022/07/16 09:41:53;;;;;;;12.75;1.45;;;;;;;;;;5031888;28;20032;-85
2022/07/16 09:44:19;;;;;;;3.30;0.90;;;;;;;;;;5031569;28;20509;-84
2022/07/16 09:46:57;;;;;;;5.28;1.15;;;;;;;;;;5012682;28;20561;-85
2022/07/16 09:49:23;;;;;;;5.10;1.20;;;;;;;;;;5027828;28;20044;-84
2022/07/16 09:51:49;;;;;;;4.10;1.40;;;;;;;;;;5015878;28;20029;-85
2022/07/16 09:54:34;;;;;;;5.93;1.33;;;;;;;;;;5030808;28;20034;-84
2022/07/16 09:57:07;;;;;;;7.25;1.20;;;;;;;;;;5033694;28;20493;-85
2022/07/16 09:59:33;;;;;;;6.80;1.45;;;;;;;;;;5017447;28;20018;-82
2022/07/16 10:01:58;;;;;;;2.83;1.08;;;;;;;;;;5018641;28;20025;-83
2022/07/16 10:04:23;;;;;;;2.83;0.90;;;;;;;;;;5034349;28;20040;-84
2022/07/16 10:06:49;;;;;;;6.82;1.13;;;;;;;;;;5032301;28;20037;-85
2022/07/16 10:09:14;;;;;;;5.13;1.00;;;;;;;;;;5030332;28;20040;-84
2022/07/16 10:11:42;;;;;;;3.38;1.27;;;;;;;;;;5016895;28;20125;-82
2022/07/16 10:14:07;;;;;;;3.90;1.08;;;;;;;;;;5015393;28;20022;-84
2022/07/16 10:16:40;;;;;;;3.85;1.17;;;;;;;;;;5033006;28;20033;-84
2022/07/16 10:19:06;;;;;;;3.42;1.17;;;;;;;;;;5035168;28;20013;-84
2022/07/16 10:21:31;;;;;;;3.88;1.10;;;;;;;;;;5017971;28;20541;-84
2022/07/16 10:24:07;;;;;;;3.53;1.35;;;;;;;;;;5016708;28;20428;-85
2022/07/16 10:26:33;;;;;;;4.35;1.40;;;;;;;;;;5014350;28;20532;-85
2022/07/16 10:28:58;;;;;;;8.02;1.27;;;;;;;;;;5020375;28;20017;-85
2022/07/16 10:31:37;;;;;;;5.63;1.23;;;;;;;;;;5035424;28;20063;-84
2022/07/16 10:34:14;;;;;;;6.50;1.20;;;;;;;;;;5030093;28;20485;-85
2022/07/16 10:36:50;;;;;;;3.97;1.30;;;;;;;;;;5014837;28;20038;-86
2022/07/16 10:39:16;;;;;;;3.88;1.42;;;;;;;;;;5026494;28;20506;-85
2022/07/16 10:41:48;;;;;;;4.47;1.05;;;;;;;;;;5014960;28;20029;-85
2022/07/16 10:44:17;;;;;;;3.80;1.38;;;;;;;;;;5028962;28;20032;-85
2022/07/16 10:46:52;;;;;;;7.78;1.83;;;;;;;;;;5037156;28;20104;-85
2022/07/16 10:49:24;;;;;;;4.55;1.38;;;;;;;;;;5043556;28;20424;-85
2022/07/16 10:51:54;;;;;;;3.80;0.90;;;;;;;;;;5014933;28;20108;-85
2022/07/16 10:54:20;;;;;;;3.75;1.20;;;;;;;;;;5017229;28;20059;-86
2022/07/16 10:56:46;;;;;;;2.10;0.88;;;;;;;;;;5012584;28;20033;-86
2022/07/16 10:59:13;;;;;;;3.58;1.42;;;;;;;;;;5016629;28;20033;-86
2022/07/16 11:01:39;;;;;;;2.42;0.95;;;;;;;;;;5013494;28;20482;-86
2022/07/16 11:04:06;;;;;;;7.38;1.42;;;;;;;;;;5017729;28;20481;-84
2022/07/16 11:06:32;;;;;;;3.80;1.10;;;;;;;;;;5041250;28;20057;-85
2022/07/16 11:09:01;;;;;;;3.67;1.02;;;;;;;;;;5026335;28;20030;-85
2022/07/16 11:11:33;;;;;;;3.40;1.52;;;;;;;;;;5015768;28;20021;-85
2022/07/16 11:13:59;;;;;;;4.07;1.20;;;;;;;;;;5003595;28;20022;-85
2022/07/16 11:16:28;;;;;;;2.10;0.90;;;;;;;;;;5021379;28;20082;-86
2022/07/16 11:18:53;;;;;;;3.45;1.10;;;;;;;;;;5022531;28;20029;-85
2022/07/16 11:21:22;;;;;;;6.47;1.30;;;;;;;;;;5036450;28;20036;-84
2022/07/16 11:23:51;;;;;;;3.00;1.45;;;;;;;;;;5023981;28;20026;-85
2022/07/16 11:26:17;;;;;;;4.80;1.60;;;;;;;;;;5030477;28;20048;-85
2022/07/16 11:28:53;;;;;;;3.05;1.10;;;;;;;;;;5032552;28;20021;-86
2022/07/16 11:31:25;;;;;;;3.67;1.30;;;;;;;;;;5033147;28;20025;-85
2022/07/16 11:33:52;;;;;;;3.88;0.93;;;;;;;;;;5019222;28;20462;-85
2022/07/16 11:36:20;;;;;;;4.97;1.20;;;;;;;;;;5022336;28;20026;-86
2022/07/16 11:38:46;;;;;;;4.55;1.00;;;;;;;;;;5010183;28;20028;-84
2022/07/16 11:41:12;;;;;;;2.95;1.20;;;;;;;;;;5012059;28;20029;-85
2022/07/16 11:43:37;;;;;;;4.65;1.50;;;;;;;;;;5013237;28;20022;-84
2022/07/16 11:46:02;;;;;;;4.68;1.20;;;;;;;;;;5016442;28;20030;-84
2022/07/16 11:48:36;;;;;;;6.18;1.35;;;;;;;;;;5001180;28;20029;-84
2022/07/16 11:51:08;;;;;;;3.20;0.90;;;;;;;;;;5015323;28;20029;-85
2022/07/16 11:53:36;;;;;;;6.72;1.17;;;;;;;;;;5009475;28;20043;-83
2022/07/16 11:56:02;;;;;;;4.65;1.17;;;;;;;;;;5010286;28;20030;-84
2022/07/16 11:58:27;;;;;;;4.57;1.10;;;;;;;;;;5033439;28;20029;-87
2022/07/16 12:00:52;;;;;;;7.93;1.75;;;;;;;;;;5018627;28;20028;-83
2022/07/16 12:03:18;;;;;;;5.00;1.13;;;;;;;;;;5017332;28;20032;-84
2022/07/16 12:05:43;;;;;;;5.93;1.38;;;;;;;;;;5013167;28;20029;-83
2022/07/16 12:08:09;;;;;;;3.70;1.15;;;;;;;;;;5012096;28;20469;-84
2022/07/16 12:10:35;;;;;;;8.07;1.27;;;;;;;;;;5027442;28;20037;-84
2022/07/16 12:13:05;;;;;;;2.83;1.13;;;;;;;;;;5012920;28;20041;-85
2022/07/16 12:15:49;;;;;;;5.93;1.58;;;;;;;;;;5012208;28;20026;-85
2022/07/16 12:18:15;;;;;;;4.13;1.00;;;;;;;;;;5025154;28;20128;-83
2022/07/16 12:20:40;;;;;;;6.53;1.20;;;;;;;;;;5011548;28;20398;-84
2022/07/16 12:23:11;;;;;;;8.93;1.38;;;;;;;;;;5012564;28;20506;-85
2022/07/16 12:25:40;;;;;;;7.13;1.42;;;;;;;;;;5007978;28;20513;-83
2022/07/16 12:28:10;;;;;;;6.70;1.63;;;;;;;;;;5013182;28;20037;-85
2022/07/16 12:30:40;;;;;;;3.13;1.10;;;;;;;;;;5013225;28;20095;-83
2022/07/16 12:33:27;;;;;;;4.80;1.98;;;;;;;;;;5012573;28;20031;-85
2022/07/16 12:35:57;;;;;;;2.70;1.00;;;;;;;;;;5007175;28;20174;-84
2022/07/16 12:38:36;;;;;;;6.88;1.70;;;;;;;;;;5013419;28;20485;-85
2022/07/16 12:41:01;;;;;;;4.55;1.95;;;;;;;;;;5028215;28;20036;-83
2022/07/16 12:43:26;;;;;;;5.00;1.30;;;;;;;;;;5026709;28;20405;-84
2022/07/16 12:45:52;;;;;;;4.80;1.52;;;;;;;;;;5009748;28;21298;-83
2022/07/16 12:48:17;;;;;;;7.13;1.45;;;;;;;;;;5010709;28;20025;-83
2022/07/16 12:50:42;;;;;;;4.18;1.55;;;;;;;;;;5027242;28;20030;-83
2022/07/16 12:53:07;;;;;;;3.70;1.23;;;;;;;;;;5008839;28;20022;-84
2022/07/16 13:01:00;;;;;;;10.13;1.67;;;;;;;;;;5010202;28;20390;-84
2022/07/16 13:03:29;;;;;;;6.65;1.15;;;;;;;;;;5011804;28;20026;-84
2022/07/16 13:05:54;;;;;;;6.03;1.38;;;;;;;;;;5010376;28;20026;-85
2022/07/16 13:08:19;;;;;;;3.50;1.27;;;;;;;;;;5015198;28;20041;-86
2022/07/16 13:10:44;;;;;;;5.43;1.20;;;;;;;;;;5028747;28;20329;-86
2022/07/16 13:13:10;;;;;;;4.63;1.50;;;;;;;;;;5014477;28;20045;-83
2022/07/16 13:15:35;;;;;;;4.40;1.50;;;;;;;;;;5014840;28;20044;-87
2022/07/16 13:18:00;;;;;;;3.38;1.00;;;;;;;;;;5030522;28;20411;-86
2022/07/16 13:20:25;;;;;;;9.43;1.88;;;;;;;;;;5030705;28;20059;-84
2022/07/16 13:22:51;;;;;;;4.38;1.55;;;;;;;;;;5014661;28;20025;-86
2022/07/16 13:25:16;;;;;;;4.23;1.17;;;;;;;;;;5035184;28;20527;-82
2022/07/16 13:27:41;;;;;;;4.28;1.45;;;;;;;;;;5031869;28;20274;-82
2022/07/16 13:30:07;;;;;;;4.13;1.23;;;;;;;;;;5014035;28;20025;-85
2022/07/16 13:32:32;;;;;;;5.80;1.20;;;;;;;;;;5035367;28;20029;-85
2022/07/16 13:34:57;;;;;;;2.63;1.10;;;;;;;;;;5016167;28;20049;-82
2022/07/16 13:37:22;;;;;;;6.95;1.40;;;;;;;;;;5024741;28;20033;-82
2022/07/16 13:39:48;;;;;;;4.95;1.83;;;;;;;;;;5036450;28;20018;-86
2022/07/16 13:42:13;;;;;;;3.08;0.98;;;;;;;;;;5018137;28;20030;-82
2022/07/16 13:44:38;;;;;;;6.95;1.40;;;;;;;;;;5031311;28;20026;-85
2022/07/16 13:47:06;;;;;;;5.45;1.40;;;;;;;;;;5008240;28;20038;-85
2022/07/16 13:49:32;;;;;;;5.93;2.00;;;;;;;;;;5037052;28;20030;-84
2022/07/16 13:51:57;;;;;;;4.45;1.50;;;;;;;;;;5034149;28;20044;-82
2022/07/16 13:54:22;;;;;;;5.18;1.58;;;;;;;;;;5018838;28;20037;-82
2022/07/16 13:56:47;;;;;;;6.15;1.42;;;;;;;;;;5017410;28;20032;-82
2022/07/16 13:59:13;;;;;;;7.03;1.33;;;;;;;;;;5035041;28;20105;-82
2022/07/16 14:01:38;;;;;;;4.90;1.40;;;;;;;;;;5019027;28;20040;-86
2022/07/16 14:04:06;;;;;;;8.87;1.90;;;;;;;;;;5030462;28;20022;-81
2022/07/16 14:06:31;;;;;;;3.85;1.40;;;;;;;;;;5015426;28;20710;-83
2022/07/16 14:08:56;;;;;;;5.15;1.50;;;;;;;;;;5011131;28;20026;-86
2022/07/16 14:11:22;;;;;;;6.18;1.50;;;;;;;;;;5035653;28;20041;-87
2022/07/16 14:13:50;;;;;;;2.15;1.20;;;;;;;;;;5035291;28;20385;-82
2022/07/16 14:16:15;;;;;;;3.30;1.42;;;;;;;;;;5015766;28;20041;-81
2022/07/16 14:18:40;;;;;;;6.35;2.08;;;;;;;;;;5015631;28;20036;-81
2022/07/16 14:21:06;;;;;;;4.20;1.58;;;;;;;;;;5011903;28;20026;-84
2022/07/16 14:23:31;;;;;;;5.37;1.40;;;;;;;;;;5015836;28;20374;-84
2022/07/16 14:25:57;;;;;;;4.88;1.42;;;;;;;;;;5033170;28;20278;-82
2022/07/16 14:28:22;;;;;;;7.53;1.70;;;;;;;;;;5014606;28;20067;-85
2022/07/16 14:30:48;;;;;;;4.55;1.55;;;;;;;;;;5031695;28;20057;-82
2022/07/16 14:33:13;;;;;;;4.93;1.50;;;;;;;;;;5035725;28;20033;-82
2022/07/16 14:35:39;;;;;;;4.57;1.45;;;;;;;;;;5015483;28;20108;-82
2022/07/16 14:38:04;;;;;;;5.25;2.75;;;;;;;;;;5027731;28;20030;-82
2022/07/16 14:40:30;;;;;;;4.38;1.60;;;;;;;;;;5031986;28;20367;-84
2022/07/16 14:42:58;;;;;;;7.85;1.83;;;;;;;;;;5034416;28;20026;-84
2022/07/16 14:45:24;;;;;;;7.10;1.88;;;;;;;;;;5038893;28;20025;-85
2022/07/16 14:47:49;;;;;;;3.50;1.05;;;;;;;;;;5015854;28;20191;-81
2022/07/16 14:50:15;;;;;;;5.53;1.50;;;;;;;;;;5031572;28;20108;-82
2022/07/16 14:52:42;;;;;;;3.28;1.20;;;;;;;;;;5014535;28;20030;-84